Time;durP1;ratioP1;P1;durP2;ratioP2;P2;SDS_P1;SDS_P2;PMS_P1;PMS_P2;Temp;Humidity;BMP_temperature;BMP_pressure;BME280_temperature;BME280_humidity;BME280_pressure;Samples;Min_cycle;Max_cycle;Signal;HPM_P1;HPM_P2
2022/04/04 00:01:06;;;;;;;12.25;6.65;;;;;;;0.74;77.16;101904.69;5110649;28;20024;-62
2022/04/04 00:03:32;;;;;;;9.10;7.15;;;;;;;0.72;77.64;101901.25;5106534;28;20024;-62
2022/04/04 00:05:57;;;;;;;12.80;7.10;;;;;;;0.73;77.14;101902.09;5091381;28;20484;-62
2022/04/04 00:08:22;;;;;;;11.05;7.00;;;;;;;0.73;77.20;101897.75;5103377;28;20028;-62
2022/04/04 00:10:48;;;;;;;11.45;7.45;;;;;;;0.72;77.55;101900.41;5111741;28;20023;-63
2022/04/04 00:13:13;;;;;;;9.70;7.03;;;;;;;0.69;77.89;101888.22;5104592;28;20030;-62
2022/04/04 00:15:38;;;;;;;11.77;7.63;;;;;;;0.68;77.66;101889.13;5091101;28;20486;-62
2022/04/04 00:18:11;;;;;;;8.98;6.57;;;;;;;0.67;77.54;101882.16;5091269;28;20059;-63
2022/04/04 00:20:37;;;;;;;10.65;7.47;;;;;;;0.64;77.73;101887.44;5105291;28;20028;-62
2022/04/04 00:23:03;;;;;;;10.10;7.43;;;;;;;0.64;77.42;101878.75;5111640;28;20025;-63
2022/04/04 00:25:29;;;;;;;10.90;7.35;;;;;;;0.63;78.19;101879.63;5111678;27;20027;-62
2022/04/04 00:27:54;;;;;;;11.45;7.82;;;;;;;0.62;78.20;101877.94;5105084;28;20039;-62
2022/04/04 00:30:19;;;;;;;9.57;7.13;;;;;;;0.59;78.56;101873.59;5091351;28;20020;-62
2022/04/04 00:32:45;;;;;;;10.65;7.50;;;;;;;0.58;78.01;101869.25;5097841;28;20058;-62
2022/04/04 00:35:10;;;;;;;13.43;7.78;;;;;;;0.57;77.94;101872.78;5110164;28;20089;-63
2022/04/04 00:37:37;;;;;;;12.45;7.88;;;;;;;0.57;78.31;101861.44;5109478;28;20102;-63
2022/04/04 00:40:04;;;;;;;11.07;8.13;;;;;;;0.54;78.55;101860.59;5111215;28;20114;-63
2022/04/04 00:42:30;;;;;;;8.93;7.55;;;;;;;0.54;78.50;101863.22;5111021;28;20036;-63
2022/04/04 00:44:55;;;;;;;11.98;8.38;;;;;;;0.52;78.16;101853.69;5104284;28;20042;-63
2022/04/04 00:47:21;;;;;;;11.52;7.93;;;;;;;0.51;78.71;101857.19;5105085;28;20054;-63
2022/04/04 00:49:47;;;;;;;12.75;8.02;;;;;;;0.50;78.53;101852.84;5109833;28;20046;-64
2022/04/04 00:52:13;;;;;;;12.15;8.90;;;;;;;0.49;78.39;101849.38;5111252;28;20085;-63
2022/04/04 00:54:38;;;;;;;11.27;8.23;;;;;;;0.48;78.24;101844.19;5111245;27;20031;-62
2022/04/04 00:57:03;;;;;;;14.10;7.88;;;;;;;0.46;78.60;101838.13;5128483;27;20468;-63
2022/04/04 00:59:29;;;;;;;9.07;7.68;;;;;;;0.46;78.70;101845.97;5089346;28;20105;-63
2022/04/04 01:01:55;;;;;;;12.07;8.27;;;;;;;0.45;78.33;101833.78;5091163;28;20039;-63
2022/04/04 01:04:20;;;;;;;14.43;8.85;;;;;;;0.44;78.98;101829.47;5090760;28;20032;-63
2022/04/04 01:06:45;;;;;;;13.20;8.70;;;;;;;0.43;78.94;101823.34;5089327;28;20032;-62
2022/04/04 01:09:14;;;;;;;12.45;8.20;;;;;;;0.41;78.85;101827.75;5090687;28;20228;-63
2022/04/04 01:12:07;;;;;;;14.45;8.68;;;;;;;0.42;78.49;101818.16;5095020;28;20023;-63
2022/04/04 01:14:34;;;;;;;14.57;8.75;;;;;;;0.39;78.82;101813.84;5109141;28;20039;-63
2022/04/04 01:16:59;;;;;;;9.48;8.45;;;;;;;0.39;78.48;101805.16;5110893;28;20031;-63
2022/04/04 01:19:24;;;;;;;11.65;9.00;;;;;;;0.39;79.24;101798.16;5111129;28;20024;-63
2022/04/04 01:21:50;;;;;;;13.00;8.55;;;;;;;0.39;79.11;101795.56;5111030;28;20028;-62
2022/04/04 01:24:18;;;;;;;11.98;8.70;;;;;;;0.38;79.12;101792.97;5091662;28;20076;-63
2022/04/04 01:26:50;;;;;;;10.32;8.55;;;;;;;0.38;78.93;101791.22;5090234;28;20428;-63
2022/04/04 01:29:16;;;;;;;11.15;8.50;;;;;;;0.38;78.68;101785.97;5089036;28;20031;-63
2022/04/04 01:31:42;;;;;;;11.95;8.57;;;;;;;0.38;78.57;101772.91;5088775;28;20515;-64
2022/04/04 01:34:07;;;;;;;11.63;8.18;;;;;;;0.39;79.06;101771.19;5090558;28;20035;-63
2022/04/04 01:36:33;;;;;;;11.60;8.63;;;;;;;0.39;78.80;101773.81;5090711;28;20458;-63
2022/04/04 01:38:58;;;;;;;9.90;8.18;;;;;;;0.38;78.83;101759.84;5089972;28;20040;-63
2022/04/04 01:41:24;;;;;;;10.02;8.02;;;;;;;0.38;78.56;101749.41;5087453;28;20080;-63
2022/04/04 01:43:50;;;;;;;9.88;8.00;;;;;;;0.39;78.50;101753.75;5088482;28;20027;-63
2022/04/04 01:46:24;;;;;;;13.43;8.60;;;;;;;0.40;78.88;101749.38;5097118;28;20024;-63
2022/04/04 01:48:53;;;;;;;15.43;8.65;;;;;;;0.39;78.41;101748.53;5090928;28;20035;-63
2022/04/04 01:51:19;;;;;;;;;;;;;;;0.44;77.31;101746.69;5089199;28;20057;-64
2022/04/04 01:53:45;;;;;;;12.45;8.32;;;;;;;0.40;78.52;101739.81;5088494;28;19991;-63
2022/04/04 01:56:11;;;;;;;11.50;8.30;;;;;;;0.40;78.22;101729.34;5088381;28;20206;-62
2022/04/04 01:58:37;;;;;;;13.43;8.25;;;;;;;0.40;78.36;101723.22;5090235;28;20020;-63
2022/04/04 02:01:10;;;;;;;11.48;8.55;;;;;;;0.41;78.29;101717.13;5090125;28;20032;-63
2022/04/04 02:03:36;;;;;;;9.80;7.97;;;;;;;0.41;78.05;101717.97;5090108;28;20028;-63
2022/04/04 02:06:02;;;;;;;12.77;8.57;;;;;;;0.41;78.36;101712.75;5089816;28;20127;-62
2022/04/04 02:08:28;;;;;;;11.35;8.13;;;;;;;0.42;78.00;101703.16;5089930;28;20032;-63
2022/04/04 02:10:54;;;;;;;9.75;7.80;;;;;;;0.43;78.03;101702.28;5088921;28;20394;-63
2022/04/04 02:13:19;;;;;;;10.20;8.07;;;;;;;0.43;78.32;101700.50;5090226;28;20111;-63
2022/04/04 02:15:44;;;;;;;13.25;8.13;;;;;;;0.44;77.88;101693.56;5089757;28;20036;-63
2022/04/04 02:18:10;;;;;;;10.30;7.95;;;;;;;0.46;77.81;101694.38;5106535;28;20024;-64
2022/04/04 02:20:35;;;;;;;9.32;7.65;;;;;;;0.45;78.07;101688.28;5110486;28;20031;-62
2022/04/04 02:23:01;;;;;;;11.07;7.60;;;;;;;0.47;78.01;101685.66;5101967;28;20385;-63
2022/04/04 02:25:26;;;;;;;11.32;7.95;;;;;;;0.47;78.11;101691.72;5126420;22;21431;-63
2022/04/04 02:27:52;;;;;;;8.82;6.80;;;;;;;0.50;78.07;101682.94;5047204;28;20473;-63
2022/04/04 02:30:17;;;;;;;12.73;7.47;;;;;;;0.50;77.77;101673.38;5049815;28;20032;-62
2022/04/04 02:32:43;;;;;;;10.50;7.80;;;;;;;0.51;78.07;101669.84;5039863;28;20021;-62
2022/04/04 02:35:08;;;;;;;10.82;7.63;;;;;;;0.53;77.78;101661.97;5046035;28;20390;-62
2022/04/04 02:37:34;;;;;;;10.27;7.60;;;;;;;0.54;77.73;101659.31;5052623;28;20556;-62
2022/04/04 02:40:00;;;;;;;13.93;7.65;;;;;;;0.55;77.69;101655.84;5053038;28;20391;-62
2022/04/04 02:42:25;;;;;;;10.38;7.40;;;;;;;0.58;78.11;101648.81;5053028;28;20032;-62
2022/04/04 02:44:51;;;;;;;13.68;7.72;;;;;;;0.60;78.23;101660.09;5050860;28;20029;-62
2022/04/04 02:47:16;;;;;;;13.02;7.53;;;;;;;0.61;77.97;101646.97;5032766;28;20029;-62
2022/04/04 02:49:41;;;;;;;10.52;7.63;;;;;;;0.65;77.64;101643.41;5032721;28;20454;-62
2022/04/04 02:52:06;;;;;;;9.23;7.65;;;;;;;0.67;77.63;101640.78;5039505;28;20064;-62
2022/04/04 02:54:32;;;;;;;8.05;7.07;;;;;;;0.67;77.50;101636.41;5052429;28;20043;-62
2022/04/04 02:56:58;;;;;;;8.98;7.13;;;;;;;0.69;77.72;101625.91;5052114;28;20040;-63
2022/04/04 02:59:23;;;;;;;9.88;7.22;;;;;;;0.70;78.15;101619.75;5052293;28;20049;-62
2022/04/04 03:01:48;;;;;;;11.00;7.50;;;;;;;0.74;78.00;101614.44;5051734;28;20032;-63
2022/04/04 03:04:17;;;;;;;9.10;6.97;;;;;;;0.76;78.01;101613.56;5052186;28;20067;-62
2022/04/04 03:06:44;;;;;;;9.93;7.95;;;;;;;0.76;77.89;101603.94;5051727;28;20025;-62
2022/04/04 03:09:09;;;;;;;8.68;7.15;;;;;;;0.77;77.56;101591.72;5052243;28;20039;-63
2022/04/04 03:11:34;;;;;;;14.05;7.40;;;;;;;0.81;77.91;101594.22;5037685;28;20030;-62
2022/04/04 03:14:00;;;;;;;13.60;7.05;;;;;;;0.82;77.83;101593.34;5032385;28;20075;-62
2022/04/04 03:16:25;;;;;;;10.98;7.40;;;;;;;0.85;77.79;101584.56;5032001;28;20029;-63
2022/04/04 03:18:53;;;;;;;10.80;7.45;;;;;;;0.86;77.77;101588.91;5032060;28;20470;-63
2022/04/04 03:21:19;;;;;;;11.35;7.25;;;;;;;0.87;78.04;101575.78;5050058;28;20037;-63
2022/04/04 03:23:44;;;;;;;9.55;7.18;;;;;;;0.90;77.85;101573.09;5052031;28;20100;-62
2022/04/04 03:26:10;;;;;;;9.75;7.10;;;;;;;0.94;77.71;101563.41;5051413;28;20087;-62
2022/04/04 03:28:36;;;;;;;11.90;6.75;;;;;;;0.95;77.83;101573.00;5052053;28;20048;-63
2022/04/04 03:31:04;;;;;;;8.10;6.93;;;;;;;0.96;78.04;101561.63;5071707;28;20081;-63
2022/04/04 03:33:29;;;;;;;9.48;6.53;;;;;;;0.99;78.06;101561.53;5071690;28;20024;-62
2022/04/04 03:35:55;;;;;;;9.50;6.60;;;;;;;1.00;78.11;101554.53;5072012;28;20035;-63
2022/04/04 03:38:20;;;;;;;9.65;7.20;;;;;;;1.02;77.75;101537.94;5071140;28;20101;-62
2022/04/04 03:40:45;;;;;;;9.50;7.50;;;;;;;1.05;78.19;101542.19;5071130;28;20028;-62
2022/04/04 03:43:11;;;;;;;13.55;7.55;;;;;;;1.08;78.34;101535.16;5071342;28;20397;-62
2022/04/04 03:45:37;;;;;;;10.73;6.90;;;;;;;1.10;77.93;101530.75;5071907;28;20458;-62
2022/04/04 03:48:02;;;;;;;10.48;7.35;;;;;;;1.13;78.34;101523.69;5071326;28;20039;-63
2022/04/04 03:50:28;;;;;;;9.13;7.03;;;;;;;1.14;78.50;101518.44;5071172;28;20035;-62
2022/04/04 03:52:55;;;;;;;8.88;6.68;;;;;;;1.16;78.23;101518.41;5071401;28;20370;-62
2022/04/04 03:55:25;;;;;;;9.57;7.47;;;;;;;1.17;78.60;101522.75;5071137;28;20020;-62
2022/04/04 03:57:51;;;;;;;10.30;7.65;;;;;;;1.19;77.99;101508.69;5070648;28;20031;-62
2022/04/04 04:00:17;;;;;;;9.65;6.60;;;;;;;1.21;78.18;101513.91;5071134;28;20021;-62
2022/04/04 04:02:42;;;;;;;9.43;7.10;;;;;;;1.24;78.29;101505.97;5071053;28;20025;-62
2022/04/04 04:05:08;;;;;;;11.82;7.88;;;;;;;1.25;78.69;101494.56;5071010;28;20082;-62
2022/04/04 04:07:34;;;;;;;10.63;8.00;;;;;;;1.27;78.76;101495.41;5070672;28;20040;-62
2022/04/04 04:10:00;;;;;;;10.18;7.60;;;;;;;1.30;78.70;101490.09;5070964;28;20069;-62
2022/04/04 04:12:25;;;;;;;13.70;7.40;;;;;;;1.33;78.51;101486.53;5070894;28;20033;-62
2022/04/04 04:14:52;;;;;;;10.85;7.50;;;;;;;1.36;78.82;101481.22;5070188;28;20067;-63
2022/04/04 04:17:22;;;;;;;11.30;7.47;;;;;;;1.39;78.56;101481.13;5070627;28;20035;-62
2022/04/04 04:22:31;;;;;;;10.27;7.80;;;;;;;1.44;78.71;101466.16;5051102;28;20044;-62
2022/04/04 04:24:58;;;;;;;13.65;7.35;;;;;;;1.45;78.40;101462.66;5050651;28;20498;-62
2022/04/04 04:27:23;;;;;;;10.68;7.50;;;;;;;1.47;78.71;101463.44;5066781;28;20477;-62
2022/04/04 04:29:48;;;;;;;13.00;7.97;;;;;;;1.49;78.52;101451.16;5070598;28;20052;-62
2022/04/04 04:32:14;;;;;;;10.93;8.27;;;;;;;1.51;78.71;101453.75;5070134;28;20032;-62
2022/04/04 04:34:39;;;;;;;14.10;8.40;;;;;;;1.52;78.48;101453.69;5052413;28;20020;-62
2022/04/04 04:37:05;;;;;;;11.20;7.80;;;;;;;1.54;78.59;101440.56;5070215;28;20042;-62
2022/04/04 04:39:30;;;;;;;14.77;8.20;;;;;;;1.57;78.48;101430.00;5070337;28;20028;-62
2022/04/04 04:41:56;;;;;;;10.13;8.07;;;;;;;1.59;78.72;101426.44;5071687;28;20039;-63
2022/04/04 04:44:21;;;;;;;11.25;7.82;;;;;;;1.60;78.39;101420.31;5071296;28;20028;-63
2022/04/04 04:46:48;;;;;;;9.40;7.65;;;;;;;1.62;78.70;101415.88;5068792;28;20132;-63
2022/04/04 04:49:13;;;;;;;11.55;7.90;;;;;;;1.66;78.42;101414.84;5051620;28;20032;-63
2022/04/04 04:51:39;;;;;;;8.88;7.45;;;;;;;1.69;78.65;101420.94;5051489;28;20021;-63
2022/04/04 04:54:05;;;;;;;10.60;8.38;;;;;;;1.70;78.67;101414.78;5052295;28;20039;-63
2022/04/04 04:56:31;;;;;;;12.10;8.20;;;;;;;1.72;78.93;101403.34;5049980;28;20041;-63
2022/04/04 04:58:56;;;;;;;11.00;8.00;;;;;;;1.72;78.88;101400.75;5051538;28;20025;-63
2022/04/04 05:01:21;;;;;;;12.00;7.90;;;;;;;1.75;78.66;101397.16;5052870;28;20387;-63
2022/04/04 05:03:49;;;;;;;15.35;8.65;;;;;;;1.77;78.44;101395.38;5071421;28;20498;-62
2022/04/04 05:06:14;;;;;;;12.68;8.02;;;;;;;1.79;78.65;101391.78;5071354;28;20081;-63
2022/04/04 05:08:40;;;;;;;15.98;8.88;;;;;;;1.82;78.50;101385.59;5052904;28;20028;-63
2022/04/04 05:11:06;;;;;;;16.20;9.02;;;;;;;1.83;78.09;101377.69;5066050;28;20675;-63
2022/04/04 05:13:31;;;;;;;16.85;8.88;;;;;;;1.83;78.20;101367.22;5050703;28;20094;-63
2022/04/04 05:15:56;;;;;;;13.25;8.05;;;;;;;1.88;78.44;101368.81;5051273;28;20036;-62
2022/04/04 05:18:22;;;;;;;15.02;9.48;;;;;;;1.89;78.29;101363.53;5051180;28;20094;-62
2022/04/04 05:20:47;;;;;;;11.68;8.55;;;;;;;1.92;78.23;101362.59;5061109;28;20023;-62
2022/04/04 05:23:13;;;;;;;12.85;8.63;;;;;;;1.94;78.26;101352.91;5071478;28;20031;-62
2022/04/04 05:25:39;;;;;;;13.88;8.95;;;;;;;1.97;78.39;101351.06;5071078;28;20381;-62
2022/04/04 05:28:07;;;;;;;13.73;8.93;;;;;;;2.00;78.16;101350.09;5071205;28;20097;-62
2022/04/04 05:30:32;;;;;;;14.63;10.05;;;;;;;2.01;78.36;101344.78;5071083;28;20052;-62
2022/04/04 05:32:58;;;;;;;15.40;10.18;;;;;;;2.05;78.23;101335.09;5071169;28;20024;-62
2022/04/04 05:35:23;;;;;;;15.52;11.07;;;;;;;2.08;78.42;101328.88;5071198;28;20031;-62
2022/04/04 05:37:54;;;;;;;16.55;11.05;;;;;;;2.11;78.34;101324.38;5071327;28;20024;-62
2022/04/04 05:40:19;;;;;;;20.60;11.57;;;;;;;2.15;78.14;101315.53;5071005;28;20173;-62
2022/04/04 05:42:44;;;;;;;13.93;10.23;;;;;;;2.18;78.02;101314.56;5071165;28;20032;-62
2022/04/04 05:45:10;;;;;;;15.45;10.07;;;;;;;2.20;77.99;101312.75;5070685;28;20166;-62
2022/04/04 05:47:36;;;;;;;13.40;9.73;;;;;;;2.25;78.13;101310.84;5071199;28;20037;-62
2022/04/04 05:50:01;;;;;;;14.95;9.63;;;;;;;2.27;77.91;101301.16;5070844;28;20394;-62
2022/04/04 05:52:27;;;;;;;14.00;9.68;;;;;;;2.33;77.42;101305.31;5051537;28;20162;-63
2022/04/04 05:54:57;;;;;;;11.85;9.23;;;;;;;2.34;77.59;101305.25;5050836;28;20040;-63
2022/04/04 05:57:36;;;;;;;13.00;9.35;;;;;;;2.39;77.48;101295.47;5052296;28;20037;-63
2022/04/04 06:00:10;;;;;;;16.55;9.38;;;;;;;2.39;77.44;101287.59;5055179;28;20028;-63
2022/04/04 06:02:37;;;;;;;16.40;10.25;;;;;;;2.44;77.10;101286.59;5067679;28;20082;-63
2022/04/04 06:05:03;;;;;;;12.90;9.07;;;;;;;2.49;77.06;101274.16;5074893;28;20032;-63
2022/04/04 06:07:28;;;;;;;13.48;8.65;;;;;;;2.53;76.66;101271.38;5074757;28;20037;-63
2022/04/04 06:09:53;;;;;;;16.63;9.70;;;;;;;2.58;76.48;101276.44;5074292;28;20035;-63
2022/04/04 06:12:19;;;;;;;12.63;9.50;;;;;;;2.59;76.86;101280.78;5073646;28;20074;-63
2022/04/04 06:14:44;;;;;;;12.73;9.48;;;;;;;2.62;76.39;101285.94;5073400;28;20378;-63
2022/04/04 06:17:09;;;;;;;12.52;9.07;;;;;;;2.66;76.27;101260.44;5072822;28;20082;-63
2022/04/04 06:19:35;;;;;;;14.88;9.63;;;;;;;2.69;76.54;101273.44;5052777;28;20120;-63
2022/04/04 06:22:03;;;;;;;13.27;9.15;;;;;;;2.72;76.28;101263.69;5060499;28;20039;-63
2022/04/04 06:24:28;;;;;;;13.45;9.82;;;;;;;2.75;76.12;101263.59;5072457;28;20037;-63
2022/04/04 06:26:54;;;;;;;13.32;9.55;;;;;;;2.77;76.03;101259.13;5050892;28;20405;-63
2022/04/04 06:29:19;;;;;;;17.83;10.25;;;;;;;2.82;75.93;101260.75;5045864;28;20034;-62
2022/04/04 06:31:46;;;;;;;13.23;9.43;;;;;;;2.85;76.06;101244.84;5054061;28;20087;-62
2022/04/04 06:34:11;;;;;;;15.35;9.93;;;;;;;2.90;75.88;101250.81;5066931;28;20482;-63
2022/04/04 06:36:40;;;;;;;14.30;10.82;;;;;;;2.96;75.68;101247.94;5050162;28;20040;-63
2022/04/04 06:39:06;;;;;;;15.32;10.60;;;;;;;3.01;76.01;101232.03;5051483;28;20056;-63
2022/04/04 06:41:31;;;;;;;16.42;10.98;;;;;;;3.10;75.03;101240.41;5051448;28;20079;-63
2022/04/04 06:43:58;;;;;;;14.32;9.50;;;;;;;3.17;74.90;101222.63;5051882;28;20424;-63
2022/04/04 06:46:23;;;;;;;12.82;9.10;;;;;;;3.23;74.95;101218.91;5052025;28;20051;-63
2022/04/04 06:48:50;;;;;;;16.27;9.68;;;;;;;3.31;74.56;101211.56;5053754;28;20035;-63
2022/04/04 06:51:19;;;;;;;13.73;9.48;;;;;;;3.37;74.25;101210.50;5051876;28;20029;-63
2022/04/04 06:53:45;;;;;;;15.55;9.40;;;;;;;3.43;73.92;101197.09;5051960;28;20025;-63
2022/04/04 06:56:11;;;;;;;14.27;9.38;;;;;;;3.46;73.72;101205.69;5058454;28;20025;-63
2022/04/04 06:58:36;;;;;;;10.75;8.82;;;;;;;3.49;73.64;101192.44;5050784;28;20039;-63
2022/04/04 07:01:02;;;;;;;13.73;9.38;;;;;;;3.57;73.66;101193.91;5050654;28;20082;-63
2022/04/04 07:03:27;;;;;;;12.82;9.10;;;;;;;3.62;73.19;101186.69;5056744;28;20068;-63
2022/04/04 07:05:52;;;;;;;14.38;9.68;;;;;;;3.67;73.14;101180.31;5050559;28;20055;-63
2022/04/04 07:08:18;;;;;;;15.65;9.50;;;;;;;3.74;73.24;101187.94;5057768;28;20025;-63
2022/04/04 07:10:43;;;;;;;10.60;8.95;;;;;;;3.80;72.61;101179.81;5053302;28;20429;-63
2022/04/04 07:13:08;;;;;;;16.00;9.88;;;;;;;3.85;72.13;101168.16;5055470;28;20405;-63
2022/04/04 07:15:35;;;;;;;11.27;8.85;;;;;;;3.91;72.30;101172.28;5070407;28;20052;-63
2022/04/04 07:18:00;;;;;;;14.85;8.85;;;;;;;3.97;71.83;101153.63;5051207;28;20057;-63
2022/04/04 07:20:26;;;;;;;14.13;9.02;;;;;;;4.01;71.35;101167.50;5050598;28;20517;-64
2022/04/04 07:22:51;;;;;;;13.90;9.00;;;;;;;4.06;71.44;101142.72;5051601;28;20395;-63
2022/04/04 07:25:17;;;;;;;13.85;9.23;;;;;;;4.10;70.75;101135.56;5051669;28;20044;-63
2022/04/04 07:27:45;;;;;;;13.23;8.80;;;;;;;4.11;70.71;101131.13;5062667;28;20071;-63
2022/04/04 07:30:12;;;;;;;10.05;8.65;;;;;;;4.13;71.23;101127.53;5053429;28;20513;-63
2022/04/04 07:32:38;;;;;;;11.77;8.90;;;;;;;4.18;70.83;101132.56;5066542;28;20117;-63
2022/04/04 07:35:05;;;;;;;14.60;9.50;;;;;;;4.21;70.41;101125.41;5070653;28;20063;-63
2022/04/04 07:37:31;;;;;;;13.88;8.77;;;;;;;4.25;70.78;101124.34;5071426;28;20055;-63
2022/04/04 07:39:56;;;;;;;12.77;9.07;;;;;;;4.30;70.52;101120.63;5071309;28;20533;-64
2022/04/04 07:42:22;;;;;;;10.93;8.60;;;;;;;4.35;70.73;101113.41;5070044;28;20386;-63
2022/04/04 07:44:47;;;;;;;14.48;9.10;;;;;;;4.38;70.34;101114.13;5073317;28;20020;-63
2022/04/04 07:47:12;;;;;;;12.52;9.20;;;;;;;4.43;70.76;101111.28;5073644;28;20036;-64
2022/04/04 07:49:38;;;;;;;11.30;8.63;;;;;;;4.46;70.62;101105.84;5073020;28;20020;-63
2022/04/04 07:52:03;;;;;;;13.40;9.05;;;;;;;4.51;70.31;101103.84;5070913;28;20101;-63
2022/04/04 07:54:29;;;;;;;11.35;8.68;;;;;;;4.55;70.88;101094.91;5067092;28;20423;-62
2022/04/04 07:56:56;;;;;;;14.25;9.55;;;;;;;4.62;70.32;101095.47;5051477;28;20025;-62
2022/04/04 07:59:21;;;;;;;12.05;9.60;;;;;;;4.68;70.24;101083.78;5066138;28;20032;-62
2022/04/04 08:01:46;;;;;;;14.20;9.63;;;;;;;4.73;69.59;101074.75;5068925;28;20043;-63
2022/04/04 08:04:12;;;;;;;13.80;8.90;;;;;;;4.82;69.34;101078.72;5068613;28;20024;-63
2022/04/04 08:06:37;;;;;;;12.27;8.82;;;;;;;4.88;69.02;101061.75;5069368;28;20393;-62
2022/04/04 08:09:02;;;;;;;11.88;8.52;;;;;;;4.97;68.73;101059.53;5056599;28;20043;-62
2022/04/04 08:11:28;;;;;;;13.30;8.27;;;;;;;5.06;69.03;101060.84;5051006;28;20029;-62
2022/04/04 08:13:53;;;;;;;9.15;8.13;;;;;;;5.16;68.62;101055.97;5048858;28;20024;-62
2022/04/04 08:16:19;;;;;;;13.65;8.23;;;;;;;5.25;67.84;101060.78;5039448;28;20047;-63
2022/04/04 08:18:44;;;;;;;15.90;8.23;;;;;;;5.30;67.75;101053.50;5067057;28;20060;-62
2022/04/04 08:21:09;;;;;;;9.18;7.95;;;;;;;5.38;66.72;101032.03;5069871;28;20016;-63
2022/04/04 08:23:34;;;;;;;17.50;8.60;;;;;;;5.47;66.91;101033.34;5070886;28;20024;-62
2022/04/04 08:26:00;;;;;;;12.65;7.70;;;;;;;5.55;65.91;101020.63;5070048;28;20049;-62
2022/04/04 08:28:28;;;;;;;10.45;7.63;;;;;;;5.60;65.79;101029.13;5067866;28;20063;-62
2022/04/04 08:30:53;;;;;;;10.45;7.20;;;;;;;5.67;65.50;101029.66;5070574;28;20024;-62
2022/04/04 08:33:19;;;;;;;15.15;7.32;;;;;;;5.71;65.36;101029.44;5070462;28;20405;-62
2022/04/04 08:35:45;;;;;;;14.10;7.30;;;;;;;5.78;65.55;101019.41;5070395;28;20128;-62
2022/04/04 08:38:11;;;;;;;14.07;7.10;;;;;;;5.83;64.53;101008.59;5070201;28;20342;-63
2022/04/04 08:40:37;;;;;;;11.82;7.32;;;;;;;5.90;64.19;101009.97;5070176;28;20029;-62
2022/04/04 08:43:05;;;;;;;15.48;7.78;;;;;;;5.97;63.90;101008.72;5070350;28;20043;-62
2022/04/04 08:45:31;;;;;;;11.00;7.03;;;;;;;6.04;64.08;101006.59;5068078;28;20425;-62
2022/04/04 08:47:57;;;;;;;9.38;7.25;;;;;;;6.11;63.50;101019.38;5049893;28;20025;-62
2022/04/04 08:50:23;;;;;;;10.85;6.97;;;;;;;6.16;62.97;101002.44;5063430;28;20033;-63
2022/04/04 08:52:49;;;;;;;13.05;8.00;;;;;;;6.19;63.25;100983.81;5070354;28;20021;-62
2022/04/04 08:55:15;;;;;;;12.32;7.90;;;;;;;6.23;63.39;100980.09;5069701;28;20039;-63
2022/04/04 08:57:41;;;;;;;13.60;7.53;;;;;;;6.27;62.82;100989.50;5070081;28;20020;-62
2022/04/04 09:00:10;;;;;;;9.55;7.47;;;;;;;6.26;62.81;100988.66;5069618;28;20032;-62
2022/04/04 09:02:36;;;;;;;15.55;7.70;;;;;;;6.28;62.91;100980.66;5069682;28;20036;-62
2022/04/04 09:05:06;;;;;;;15.40;8.25;;;;;;;6.29;63.76;100975.31;5070132;28;20032;-62
2022/04/04 09:07:32;;;;;;;14.65;7.90;;;;;;;6.27;63.58;100973.69;5069944;28;20040;-62
2022/04/04 09:09:57;;;;;;;13.85;8.15;;;;;;;6.25;64.23;100971.13;5069431;28;20028;-62
2022/04/04 09:12:24;;;;;;;12.20;7.72;;;;;;;6.22;64.61;100970.47;5069739;28;20117;-62
2022/04/04 09:14:54;;;;;;;13.77;7.65;;;;;;;6.20;64.63;100973.19;5069636;28;20031;-62
2022/04/04 09:17:23;;;;;;;17.52;7.80;;;;;;;6.17;64.81;100961.97;5058093;28;20063;-62
2022/04/04 09:19:48;;;;;;;14.57;7.85;;;;;;;6.15;65.04;100961.19;5074916;28;20028;-62
2022/04/04 09:22:16;;;;;;;12.65;8.15;;;;;;;6.15;65.20;100950.66;5088278;28;20494;-62
2022/04/04 09:24:43;;;;;;;15.18;8.30;;;;;;;6.12;65.22;100951.66;5077985;28;20028;-62
2022/04/04 09:27:16;;;;;;;14.50;7.97;;;;;;;6.14;65.88;100943.66;5067960;28;20052;-62
2022/04/04 09:29:42;;;;;;;14.93;8.35;;;;;;;6.14;65.74;100943.66;5068158;28;20032;-62
2022/04/04 09:32:17;;;;;;;15.27;8.27;;;;;;;6.14;66.50;100941.03;5070536;28;20033;-63
2022/04/04 09:35:04;;;;;;;14.73;8.25;;;;;;;6.13;67.39;100934.03;5072138;28;20024;-62
2022/04/04 09:37:33;;;;;;;17.67;9.00;;;;;;;6.08;68.04;100929.06;5071996;28;20467;-62
2022/04/04 09:40:19;;;;;;;14.95;9.07;;;;;;;6.10;68.25;100930.66;5050410;28;20033;-62
2022/04/04 09:42:50;;;;;;;13.95;8.20;;;;;;;6.06;68.85;100930.91;5051906;28;20020;-62
2022/04/04 09:45:16;;;;;;;11.95;8.57;;;;;;;5.97;69.59;100928.78;5051412;28;20079;-62
2022/04/04 09:47:45;;;;;;;16.10;8.65;;;;;;;5.96;69.11;100929.69;5054730;28;20092;-62
2022/04/04 09:50:27;;;;;;;13.48;9.00;;;;;;;5.89;71.03;100919.47;5054002;28;20040;-62
2022/04/04 09:52:52;;;;;;;12.48;8.45;;;;;;;5.87;70.78;100912.59;5070584;28;20181;-62
2022/04/04 09:55:35;;;;;;;15.13;9.38;;;;;;;5.89;71.04;100924.75;5073940;28;20471;-62
2022/04/04 09:58:04;;;;;;;13.10;9.00;;;;;;;5.85;70.88;100919.75;5073830;28;20028;-62
2022/04/04 10:00:29;;;;;;;14.33;8.67;;;;;;;5.81;71.59;100915.56;5073332;28;20466;-62
2022/04/04 10:02:57;;;;;;;13.70;9.02;;;;;;;5.78;72.12;100910.47;5073644;28;20077;-62
2022/04/04 10:05:26;;;;;;;12.15;9.25;;;;;;;5.77;72.92;100908.78;5071099;28;20090;-62
2022/04/04 10:07:55;;;;;;;12.27;8.52;;;;;;;5.78;73.54;100903.44;5068672;28;20378;-62
2022/04/04 10:10:23;;;;;;;15.35;10.00;;;;;;;5.79;72.47;100901.63;5083430;28;20044;-62
2022/04/04 10:12:49;;;;;;;14.05;9.35;;;;;;;5.77;73.65;100887.69;5070594;28;20147;-62
2022/04/04 10:15:15;;;;;;;11.90;9.45;;;;;;;5.78;75.04;100899.94;5054265;28;20029;-62
2022/04/04 10:17:41;;;;;;;12.85;9.48;;;;;;;5.77;74.73;100893.81;5069104;28;20067;-62
2022/04/04 10:20:07;;;;;;;18.38;9.77;;;;;;;5.77;75.65;100893.81;5072901;28;20609;-62
2022/04/04 10:22:33;;;;;;;13.70;9.80;;;;;;;5.75;75.14;100886.00;5071828;28;20032;-62
2022/04/04 10:25:02;;;;;;;16.38;10.13;;;;;;;5.74;75.74;100891.34;5072791;28;20086;-62
2022/04/04 10:27:28;;;;;;;13.80;9.43;;;;;;;5.72;76.53;100888.78;5042496;28;20115;-62
2022/04/04 10:30:04;;;;;;;11.85;9.93;;;;;;;5.72;76.10;100880.03;5035387;28;20707;-62
2022/04/04 10:32:31;;;;;;;13.45;9.40;;;;;;;5.70;76.38;100884.56;5054790;28;20025;-62
2022/04/04 10:34:57;;;;;;;14.70;10.10;;;;;;;5.67;77.82;100888.19;5070211;28;20031;-62
2022/04/04 10:37:28;;;;;;;12.60;9.60;;;;;;;5.66;77.99;100889.16;5070778;28;20032;-62
2022/04/04 10:39:55;;;;;;;13.50;9.70;;;;;;;5.65;78.40;100890.06;5072667;28;20033;-62
2022/04/04 10:42:32;;;;;;;12.85;10.02;;;;;;;5.65;79.25;100887.44;5072260;28;20036;-62
2022/04/04 10:45:05;;;;;;;12.98;10.50;;;;;;;5.64;79.32;100888.38;5072361;28;20028;-62
2022/04/04 10:47:31;;;;;;;17.27;11.40;;;;;;;5.60;79.77;100881.59;5072820;28;20046;-62
2022/04/04 10:50:30;;;;;;;13.20;10.50;;;;;;;5.61;79.86;100885.91;5042953;28;20216;-62
2022/04/04 10:52:59;;;;;;;14.43;11.20;;;;;;;5.54;81.23;100888.03;5050359;28;20037;-61
2022/04/04 10:55:27;;;;;;;;;;;;;;;5.71;78.41;100886.25;5071054;28;20490;-61
2022/04/04 10:58:09;;;;;;;12.02;9.95;;;;;;;5.50;81.67;100880.38;5071445;28;19917;-61
2022/04/04 11:00:56;;;;;;;15.20;10.48;;;;;;;5.49;82.31;100870.78;5069219;28;20046;-61
2022/04/04 11:03:50;;;;;;;14.88;9.30;;;;;;;5.49;82.19;100868.97;5071312;28;20056;-62
2022/04/04 11:09:12;;;;;;;12.90;9.30;;;;;;;5.49;82.92;100878.69;5070915;28;20035;-61
2022/04/04 11:11:56;;;;;;;13.63;9.45;;;;;;;5.43;83.58;100850.91;5061739;28;20049;-61
2022/04/04 11:14:27;;;;;;;11.63;9.57;;;;;;;5.43;84.18;100852.66;5060233;28;20405;-61
2022/04/04 11:17:08;;;;;;;12.88;10.18;;;;;;;5.41;84.61;100847.47;5071572;28;20079;-61
2022/04/04 11:19:53;;;;;;;11.82;9.85;;;;;;;5.41;84.52;100854.53;5070993;28;20098;-61
2022/04/04 11:22:26;;;;;;;12.20;10.10;;;;;;;5.35;85.28;100838.13;5070486;28;20082;-61
2022/04/04 11:25:05;;;;;;;11.52;9.10;;;;;;;5.37;84.78;100838.91;5070803;28;20076;-61
2022/04/04 11:27:33;;;;;;;12.00;8.73;;;;;;;5.36;84.13;100831.09;5070913;28;20057;-61
2022/04/04 11:30:10;;;;;;;10.38;8.85;;;;;;;5.34;84.33;100830.31;5072642;28;20141;-60
2022/04/04 11:32:40;;;;;;;11.50;9.90;;;;;;;5.32;84.53;100834.84;5090864;28;20032;-60